createdAt,value
2023-04-12T00:00:13.692Z,99227.63
2023-04-12T00:00:55.763Z,99247.50
2023-04-12T00:01:37.931Z,99238.16
2023-04-12T00:02:19.967Z,99226.94
2023-04-12T00:03:07.578Z,99233.69
2023-04-12T00:03:50.997Z,99237.19
2023-04-12T00:04:34.456Z,99248.63
2023-04-12T00:05:16.580Z,99248.84
2023-04-12T00:05:59.907Z,99241.09
2023-04-12T00:06:42.619Z,99244.94
2023-04-12T00:07:25.056Z,99254.69
2023-04-12T00:08:06.839Z,99226.13
2023-04-12T00:08:48.493Z,99226.56
2023-04-12T00:09:33.259Z,99247.03
2023-04-12T00:10:15.106Z,99231.16
2023-04-12T00:10:56.753Z,99226.59
2023-04-12T00:11:38.449Z,99229.25
2023-04-12T00:12:20.724Z,99224.28
2023-04-12T00:13:02.664Z,99237.75
2023-04-12T00:13:44.319Z,99227.69
2023-04-12T00:14:26.377Z,99225.03
2023-04-12T00:15:08.995Z,99223.22
2023-04-12T00:15:50.692Z,99236.72
2023-04-12T00:16:32.609Z,99228.25
2023-04-12T00:17:14.634Z,99235.63
2023-04-12T00:17:56.460Z,99213.19
2023-04-12T00:18:42.365Z,99233.63
2023-04-12T00:19:27.661Z,99215.50
2023-04-12T00:20:12.979Z,99229.19
2023-04-12T00:20:57.612Z,99225.16
2023-04-12T00:21:39.424Z,99232.53
2023-04-12T00:22:21.126Z,99208.03
2023-04-12T00:23:03.304Z,99220.06
2023-04-12T00:23:47.087Z,99231.94
2023-04-12T00:24:28.814Z,99237.50
2023-04-12T00:25:11.237Z,99239.31
2023-04-12T00:25:52.956Z,99237.69
2023-04-12T00:26:34.948Z,99232.31
2023-04-12T00:27:16.637Z,99230.28
2023-04-12T00:27:58.509Z,99220.31
2023-04-12T00:28:40.391Z,99228.25
2023-04-12T00:29:22.244Z,99225.63
2023-04-12T00:30:04.316Z,99240.50
2023-04-12T00:30:46.157Z,99224.38
2023-04-12T00:31:28.398Z,99239.13
2023-04-12T00:32:10.101Z,99240.69
2023-04-12T00:32:51.816Z,99236.81
2023-04-12T00:33:34.531Z,99226.38
2023-04-12T00:34:17.216Z,99241.50
2023-04-12T00:34:58.892Z,99235.13
2023-04-12T00:35:40.849Z,99244.88
2023-04-12T00:36:22.539Z,99231.63
2023-04-12T00:37:04.394Z,99234.47
2023-04-12T00:37:46.351Z,99225.84
2023-04-12T00:38:28.097Z,99228.28
2023-04-12T00:39:09.915Z,99211.50
2023-04-12T00:39:51.654Z,99222.56
2023-04-12T00:40:33.357Z,99223.59
2023-04-12T00:41:15.344Z,99207.81
2023-04-12T00:41:57.049Z,99207.44
2023-04-12T00:42:39.138Z,99202.97
2023-04-12T00:43:20.881Z,99210.16
2023-04-12T00:44:02.562Z,99217.75
2023-04-12T00:44:44.747Z,99204.91
2023-04-12T00:45:27.325Z,99207.81
2023-04-12T00:46:09.912Z,99203.16
2023-04-12T00:46:51.833Z,99205.19
2023-04-12T00:47:36.598Z,99206.88
2023-04-12T00:48:21.274Z,99207.94
2023-04-12T00:49:03.232Z,99202.63
2023-04-12T00:49:45.135Z,99192.22
2023-04-12T00:50:26.863Z,99210.00
2023-04-12T00:51:09.277Z,99204.53
2023-04-12T00:51:51.307Z,99208.59
2023-04-12T00:52:37.630Z,99192.69
2023-04-12T00:53:19.449Z,99197.59
2023-04-12T00:54:01.598Z,99201.25
2023-04-12T00:54:43.542Z,99203.25
2023-04-12T00:55:26.278Z,99201.44
2023-04-12T00:56:08.232Z,99197.53
2023-04-12T00:56:50.031Z,99199.16
2023-04-12T00:57:37.296Z,99193.22
2023-04-12T00:58:19.408Z,99176.63
2023-04-12T00:59:02.033Z,99197.03
2023-04-12T00:59:43.785Z,99185.94
2023-04-12T01:00:25.691Z,99188.22
2023-04-12T01:01:07.473Z,99177.78
2023-04-12T01:01:49.400Z,99190.63
2023-04-12T01:02:33.629Z,99175.66
2023-04-12T01:03:22.866Z,99183.63
2023-04-12T01:04:05.289Z,99189.75
2023-04-12T01:04:50.588Z,99185.91
2023-04-12T01:05:40.571Z,99114.56
2023-04-12T01:06:47.833Z,99184.09
2023-04-12T01:07:45.142Z,99180.44
2023-04-12T01:08:45.322Z,99185.53
2023-04-12T01:09:46.592Z,99167.31
2023-04-12T01:10:59.418Z,99177.97
2023-04-12T01:11:59.187Z,99176.34
2023-04-12T01:13:10.859Z,99174.06
2023-04-12T01:14:09.675Z,99178.13
2023-04-12T01:15:09.434Z,99170.38
2023-04-12T01:15:58.503Z,99176.84
2023-04-12T01:16:53.611Z,99179.31
2023-04-12T01:17:49.706Z,99180.97
2023-04-12T01:18:40.611Z,99175.84
2023-04-12T01:19:57.393Z,99171.38
2023-04-12T01:20:44.762Z,99174.03
2023-04-12T01:21:45.168Z,99172.84
2023-04-12T01:22:46.109Z,99164.66
2023-04-12T01:23:50.627Z,99165.28
2023-04-12T01:24:49.008Z,99155.06
2023-04-12T01:25:36.636Z,99169.84
2023-04-12T01:26:37.014Z,99170.69
2023-04-12T01:27:56.530Z,99161.56
2023-04-12T01:28:43.354Z,99163.63
2023-04-12T01:29:30.143Z,99153.47
2023-04-12T01:30:15.825Z,99162.66
2023-04-12T01:30:59.711Z,99134.91
2023-04-12T01:31:54.897Z,99151.50
2023-04-12T01:32:38.989Z,99153.53
2023-04-12T01:33:21.293Z,99131.91
2023-04-12T01:34:04.774Z,99153.16
2023-04-12T01:34:47.058Z,99138.25
2023-04-12T01:35:32.444Z,99142.75
2023-04-12T01:36:20.838Z,99155.22
2023-04-12T01:37:03.704Z,99140.13
2023-04-12T01:37:46.256Z,99144.44
2023-04-12T01:38:28.719Z,99137.47
2023-04-12T01:39:10.779Z,99145.25
2023-04-12T01:39:52.345Z,99143.63
2023-04-12T01:40:35.857Z,99109.91
2023-04-12T01:41:18.023Z,99137.72
2023-04-12T01:41:59.707Z,99141.56
2023-04-12T01:42:41.468Z,99130.13
2023-04-12T01:43:23.094Z,99147.91
2023-04-12T01:44:04.738Z,99129.34
2023-04-12T01:44:46.726Z,99137.53
2023-04-12T01:45:28.378Z,99130.59
2023-04-12T01:46:12.028Z,99133.84
2023-04-12T01:46:54.131Z,99127.13
2023-04-12T01:47:35.942Z,99121.19
2023-04-12T01:48:18.337Z,99116.06
2023-04-12T01:49:00.212Z,99123.66
2023-04-12T01:49:55.622Z,99117.72
2023-04-12T01:50:37.278Z,99126.69
2023-04-12T01:51:26.152Z,99119.13
2023-04-12T01:52:16.175Z,99125.44
2023-04-12T01:53:05.739Z,99124.03
2023-04-12T01:54:02.923Z,99120.56
2023-04-12T01:54:45.234Z,99117.72
2023-04-12T01:55:31.208Z,99118.50
2023-04-12T01:56:15.553Z,99106.25
2023-04-12T01:57:02.472Z,99114.84
2023-04-12T01:57:45.992Z,99109.97
2023-04-12T01:58:29.583Z,99071.41
2023-04-12T01:59:15.829Z,99101.84
2023-04-12T01:59:59.694Z,99099.41
2023-04-12T02:00:43.816Z,99087.34
2023-04-12T02:01:26.057Z,99090.00
2023-04-12T02:02:09.354Z,99094.91
2023-04-12T02:02:51.466Z,99087.53
2023-04-12T02:03:34.933Z,99085.09
2023-04-12T02:04:18.684Z,99094.22
2023-04-12T02:05:01.790Z,99073.66
2023-04-12T02:05:43.596Z,99088.09
2023-04-12T02:06:27.111Z,99056.91
2023-04-12T02:07:09.502Z,99064.84
2023-04-12T02:07:51.709Z,99078.28
2023-04-12T02:08:33.352Z,99076.88
2023-04-12T02:09:15.925Z,99078.88
2023-04-12T02:09:57.500Z,99082.16
2023-04-12T02:10:40.436Z,99085.63
2023-04-12T02:11:22.035Z,99076.88
2023-04-12T02:12:03.810Z,99057.84
2023-04-12T02:12:45.619Z,99063.16
2023-04-12T02:13:27.189Z,99056.22
2023-04-12T02:14:10.127Z,99067.28
2023-04-12T02:14:52.191Z,99064.84
2023-04-12T02:15:34.223Z,99065.84
2023-04-12T02:16:16.872Z,99061.31
2023-04-12T02:17:04.924Z,99050.88
2023-04-12T02:17:47.197Z,99059.84
2023-04-12T02:18:30.426Z,99038.16
2023-04-12T02:19:13.034Z,99055.94
2023-04-12T02:19:57.738Z,99057.78
2023-04-12T02:20:40.703Z,99059.22
2023-04-12T02:21:23.116Z,99057.38
2023-04-12T02:22:05.739Z,99052.91
2023-04-12T02:22:47.373Z,99052.28
2023-04-12T02:23:28.933Z,99049.69
2023-04-12T02:24:11.763Z,99052.34
2023-04-12T02:24:53.373Z,99041.53
2023-04-12T02:25:35.958Z,99050.09
2023-04-12T02:26:20.869Z,99047.44
2023-04-12T02:27:02.798Z,99024.94
2023-04-12T02:27:48.651Z,99044.78
2023-04-12T02:28:30.486Z,99047.63
2023-04-12T02:29:12.584Z,99036.84
2023-04-12T02:29:55.082Z,99038.88
2023-04-12T02:30:36.872Z,99044.78
2023-04-12T02:31:18.951Z,99044.16
2023-04-12T02:32:03.160Z,99033.16
2023-04-12T02:32:45.706Z,99031.75
2023-04-12T02:33:41.101Z,99036.63
2023-04-12T02:34:24.438Z,99033.56
2023-04-12T02:35:17.493Z,99038.06
2023-04-12T02:36:04.408Z,99035.59
2023-04-12T02:36:49.703Z,99033.00
2023-04-12T02:37:32.121Z,99034.47
2023-04-12T02:38:14.898Z,99037.50
2023-04-12T02:38:57.049Z,99036.66
2023-04-12T02:39:41.340Z,99038.88
2023-04-12T02:40:23.492Z,99039.88
2023-04-12T02:41:05.616Z,99039.06
2023-04-12T02:41:48.725Z,99041.53
2023-04-12T02:42:31.147Z,99043.16
2023-04-12T02:43:12.877Z,99040.69
2023-04-12T02:43:58.592Z,99033.41
2023-04-12T02:44:41.893Z,99012.94
2023-04-12T02:45:28.244Z,99035.78
2023-04-12T02:46:13.641Z,99028.28
2023-04-12T02:47:01.673Z,99016.81
2023-04-12T02:47:45.059Z,99021.34
2023-04-12T02:48:26.794Z,99018.28
2023-04-12T02:49:08.803Z,99025.19
2023-04-12T02:49:56.015Z,99018.47
2023-04-12T02:50:38.352Z,99004.97
2023-04-12T02:51:29.338Z,98993.16
2023-04-12T02:52:11.237Z,99019.66
2023-04-12T02:53:10.510Z,99016.41
2023-04-12T02:53:52.418Z,99019.25
2023-04-12T02:54:37.658Z,99004.78
2023-04-12T02:55:19.654Z,98977.06
2023-04-12T02:56:06.208Z,99007.25
2023-04-12T02:56:48.281Z,99005.44
2023-04-12T02:57:51.617Z,98974.41
2023-04-12T02:58:34.401Z,98997.66
2023-04-12T02:59:16.179Z,98972.59
2023-04-12T03:00:17.997Z,98996.47
2023-04-12T03:01:08.083Z,98996.47
2023-04-12T03:02:06.443Z,98993.00
2023-04-12T03:02:51.391Z,98997.22
2023-04-12T03:03:39.017Z,98998.63
2023-04-12T03:04:39.993Z,98991.84
2023-04-12T03:05:27.311Z,98997.09
2023-04-12T03:06:09.512Z,98995.84
2023-04-12T03:06:54.850Z,98985.06
2023-04-12T03:07:44.097Z,98989.72
2023-04-12T03:08:26.222Z,98985.00
2023-04-12T03:09:11.425Z,98979.91
2023-04-12T03:09:53.746Z,98986.69
2023-04-12T03:10:37.514Z,98988.56
2023-04-12T03:11:19.155Z,98987.34
2023-04-12T03:12:02.063Z,98980.25
2023-04-12T03:12:45.736Z,98962.50
2023-04-12T03:13:32.738Z,98985.81
2023-04-12T03:14:14.602Z,98966.84
2023-04-12T03:14:56.832Z,98975.41
2023-04-12T03:15:43.587Z,98977.69
2023-04-12T03:16:29.498Z,98987.09
2023-04-12T03:17:20.240Z,98971.78
2023-04-12T03:18:01.996Z,98986.53
2023-04-12T03:18:47.223Z,98984.50
2023-04-12T03:19:30.362Z,98981.88
2023-04-12T03:20:13.554Z,98982.25
2023-04-12T03:21:02.424Z,98977.78
2023-04-12T03:21:44.733Z,98969.63
2023-04-12T03:22:26.595Z,98945.97
2023-04-12T03:23:13.008Z,98976.97
2023-04-12T03:23:59.563Z,98951.28
2023-04-12T03:24:42.852Z,98958.25
2023-04-12T03:25:25.657Z,98968.47
2023-04-12T03:26:11.835Z,98970.09
2023-04-12T03:26:55.170Z,98953.56
2023-04-12T03:27:40.280Z,98962.34
2023-04-12T03:28:23.373Z,98963.16
2023-04-12T03:29:10.737Z,98959.72
2023-04-12T03:29:54.029Z,98961.97
2023-04-12T03:30:38.022Z,98952.16
2023-04-12T03:31:21.447Z,98952.59
2023-04-12T03:32:03.808Z,98956.44
2023-04-12T03:32:46.206Z,98944.00
2023-04-12T03:33:28.497Z,98940.50
2023-04-12T03:34:16.420Z,98956.41
2023-04-12T03:35:03.120Z,98951.94
2023-04-12T03:35:45.440Z,98949.31
2023-04-12T03:36:29.741Z,98955.59
2023-04-12T03:37:19.521Z,98959.06
2023-04-12T03:38:02.283Z,98954.78
2023-04-12T03:38:45.169Z,98961.09
2023-04-12T03:39:27.139Z,98950.91
2023-04-12T03:40:10.696Z,98938.25
2023-04-12T03:40:53.775Z,98951.31
2023-04-12T03:41:42.725Z,98901.53
2023-04-12T03:42:33.094Z,98938.88
2023-04-12T03:43:25.680Z,98943.78
2023-04-12T03:44:07.614Z,98947.03
2023-04-12T03:44:52.347Z,98942.38
2023-04-12T03:45:36.766Z,98936.84
2023-04-12T03:46:19.671Z,98935.66
2023-04-12T03:47:08.513Z,98940.75
2023-04-12T03:47:51.306Z,98931.75
2023-04-12T03:48:35.051Z,98941.13
2023-04-12T03:49:17.117Z,98920.34
2023-04-12T03:50:12.329Z,98932.97
2023-04-12T03:50:59.929Z,98917.69
2023-04-12T03:51:45.377Z,98925.47
2023-04-12T03:52:26.952Z,98925.88
2023-04-12T03:53:08.728Z,98928.09
2023-04-12T03:53:50.412Z,98910.34
2023-04-12T03:54:33.213Z,98896.25
2023-04-12T03:55:19.729Z,98919.09
2023-04-12T03:56:05.320Z,98917.25
2023-04-12T03:56:46.996Z,98920.28
2023-04-12T03:57:37.117Z,98918.66
2023-04-12T03:58:21.168Z,98915.38
2023-04-12T03:59:03.625Z,98915.81
2023-04-12T03:59:45.323Z,98901.56
2023-04-12T04:00:28.103Z,98877.09
2023-04-12T04:01:23.726Z,98905.22
2023-04-12T04:02:06.946Z,98888.94
2023-04-12T04:02:52.806Z,98888.94
2023-04-12T04:03:35.131Z,98830.63
2023-04-12T04:04:25.666Z,98894.50
2023-04-12T04:05:13.079Z,98889.38
2023-04-12T04:05:56.190Z,98903.00
2023-04-12T04:06:38.724Z,98891.59
2023-04-12T04:07:21.447Z,98891.59
2023-04-12T04:08:03.143Z,98893.47
2023-04-12T04:08:52.623Z,98883.91
2023-04-12T04:09:34.607Z,98893.66
2023-04-12T04:10:16.312Z,98884.91
2023-04-12T04:11:00.862Z,98842.88
2023-04-12T04:11:49.910Z,98885.72
2023-04-12T04:12:32.281Z,98885.72
2023-04-12T04:13:14.007Z,98886.09
2023-04-12T04:13:56.119Z,98880.81
2023-04-12T04:14:37.889Z,98872.25
2023-04-12T04:15:22.464Z,98865.28
2023-04-12T04:16:06.483Z,98879.19
2023-04-12T04:16:48.469Z,98882.03
2023-04-12T04:17:30.897Z,98871.06
2023-04-12T04:18:12.948Z,98875.97
2023-04-12T04:18:54.781Z,98881.03
2023-04-12T04:19:38.332Z,98876.81
2023-04-12T04:20:20.550Z,98869.31
2023-04-12T04:21:07.300Z,98870.75
2023-04-12T04:21:50.048Z,98848.31
2023-04-12T04:22:32.513Z,98872.34
2023-04-12T04:23:17.510Z,98860.94
2023-04-12T04:24:01.217Z,98854.38
2023-04-12T04:24:48.219Z,98863.56
2023-04-12T04:25:30.419Z,98862.50
2023-04-12T04:26:16.844Z,98842.13
2023-04-12T04:27:04.830Z,98835.59
2023-04-12T04:27:46.491Z,98859.63
2023-04-12T04:28:28.479Z,98864.50
2023-04-12T04:29:10.074Z,98864.25
2023-04-12T04:29:54.141Z,98865.47
2023-04-12T04:30:38.838Z,98831.47
2023-04-12T04:31:26.163Z,98855.53
2023-04-12T04:32:08.417Z,98841.28
2023-04-12T04:32:50.314Z,98857.22
2023-04-12T04:33:35.964Z,98831.31
2023-04-12T04:34:19.082Z,98817.47
2023-04-12T04:35:02.539Z,98854.19
2023-04-12T04:35:56.977Z,98844.63
2023-04-12T04:36:43.580Z,98819.97
2023-04-12T04:37:26.160Z,98839.31
2023-04-12T04:38:08.035Z,98844.81
2023-04-12T04:38:50.868Z,98846.66
2023-04-12T04:39:46.246Z,98851.28
2023-04-12T04:40:28.872Z,98839.66
2023-04-12T04:41:10.547Z,98791.97
2023-04-12T04:42:12.449Z,98834.94
2023-04-12T04:42:55.568Z,98842.09
2023-04-12T04:43:40.900Z,98839.25
2023-04-12T04:44:22.548Z,98830.53
2023-04-12T04:45:14.024Z,98831.75
2023-04-12T04:45:58.793Z,98829.09
2023-04-12T04:46:40.426Z,98835.59
2023-04-12T04:47:22.194Z,98828.28
2023-04-12T04:48:04.142Z,98828.91
2023-04-12T04:48:45.763Z,98830.72
2023-04-12T04:49:27.355Z,98830.97
2023-04-12T04:50:14.219Z,98831.97
2023-04-12T04:50:55.806Z,98827.09
2023-04-12T04:51:37.776Z,98835.19
2023-04-12T04:52:19.560Z,98833.75
2023-04-12T04:53:02.794Z,98831.09
2023-04-12T04:53:47.465Z,98827.41
2023-04-12T04:54:33.009Z,98825.75
2023-04-12T04:55:17.579Z,98836.75
2023-04-12T04:56:01.333Z,98834.75
2023-04-12T04:56:48.119Z,98804.19
2023-04-12T04:57:31.781Z,98800.91
2023-04-12T04:58:14.830Z,98836.19
2023-04-12T04:58:57.182Z,98831.13
2023-04-12T04:59:40.509Z,98833.38
2023-04-12T05:00:29.293Z,98824.81
2023-04-12T05:01:13.563Z,98833.56
2023-04-12T05:01:55.885Z,98827.22
2023-04-12T05:02:40.044Z,98821.91
2023-04-12T05:03:22.161Z,98829.84
2023-04-12T05:04:04.148Z,98825.75
2023-04-12T05:04:46.489Z,98803.56
2023-04-12T05:05:32.500Z,98821.72
2023-04-12T05:06:21.322Z,98828.38
2023-04-12T05:07:03.047Z,98824.69
2023-04-12T05:07:44.602Z,98816.72
2023-04-12T05:08:26.615Z,98827.94
2023-04-12T05:09:08.679Z,98827.13
2023-04-12T05:09:56.000Z,98825.50
2023-04-12T05:10:37.670Z,98826.13
2023-04-12T05:11:19.976Z,98830.22
2023-04-12T05:12:02.143Z,98832.66
2023-04-12T05:12:43.941Z,98827.00
2023-04-12T05:13:28.166Z,98825.38
2023-04-12T05:14:12.439Z,98824.81
2023-04-12T05:15:08.555Z,98820.75
2023-04-12T05:15:53.019Z,98815.63
2023-04-12T05:16:35.457Z,98813.00
2023-04-12T05:17:17.442Z,98812.41
2023-04-12T05:17:59.505Z,98821.78
2023-04-12T05:18:41.150Z,98818.91
2023-04-12T05:19:22.808Z,98802.97
2023-04-12T05:20:08.654Z,98816.19
2023-04-12T05:20:50.936Z,98823.13
2023-04-12T05:21:33.732Z,98815.25
2023-04-12T05:22:20.216Z,98803.88
2023-04-12T05:23:01.812Z,98813.84
2023-04-12T05:23:46.095Z,98822.78
2023-04-12T05:24:28.328Z,98823.59
2023-04-12T05:25:12.686Z,98812.59
2023-04-12T05:26:00.388Z,98819.97
2023-04-12T05:26:42.241Z,98814.06
2023-04-12T05:27:31.971Z,98804.69
2023-04-12T05:28:17.146Z,98812.25
2023-04-12T05:29:01.076Z,98812.03
2023-04-12T05:29:43.422Z,98810.03
2023-04-12T05:30:25.532Z,98808.81
2023-04-12T05:31:08.423Z,98799.47
2023-04-12T05:31:52.727Z,98765.25
2023-04-12T05:32:37.502Z,98783.81
2023-04-12T05:33:19.158Z,98806.00
2023-04-12T05:34:03.006Z,98806.00
2023-04-12T05:34:49.022Z,98799.31
2023-04-12T05:35:31.500Z,98797.06
2023-04-12T05:36:14.500Z,98796.00
2023-04-12T05:36:56.992Z,98801.50
2023-04-12T05:37:38.948Z,98788.50
2023-04-12T05:38:20.673Z,98764.81
2023-04-12T05:39:07.321Z,98783.81
2023-04-12T05:39:50.340Z,98752.63
2023-04-12T05:40:33.769Z,98785.84
2023-04-12T05:41:15.644Z,98787.06
2023-04-12T05:41:57.374Z,98784.66
2023-04-12T05:42:40.615Z,98778.13
2023-04-12T05:43:22.210Z,98782.81
2023-04-12T05:44:03.788Z,98747.34
2023-04-12T05:44:49.790Z,98776.31
2023-04-12T05:45:31.822Z,98766.13
2023-04-12T05:46:14.616Z,98778.13
2023-04-12T05:46:58.518Z,98768.81
2023-04-12T05:47:40.370Z,98772.66
2023-04-12T05:48:25.138Z,98762.91
2023-04-12T05:49:09.020Z,98757.63
2023-04-12T05:49:50.702Z,98762.50
2023-04-12T05:50:33.797Z,98761.69
2023-04-12T05:51:18.199Z,98766.16
2023-04-12T05:52:02.076Z,98759.63
2023-04-12T05:52:43.928Z,98769.19
2023-04-12T05:53:25.546Z,98725.44
2023-04-12T05:54:07.612Z,98752.91
2023-04-12T05:54:52.691Z,98759.84
2023-04-12T05:55:37.733Z,98765.72
2023-04-12T05:56:20.844Z,98748.44
2023-04-12T05:57:03.033Z,98756.78
2023-04-12T05:57:46.807Z,98740.13
2023-04-12T05:58:31.362Z,98747.03
2023-04-12T05:59:13.789Z,98744.22
2023-04-12T05:59:55.489Z,98748.28
2023-04-12T06:00:38.949Z,98736.66
2023-04-12T06:01:21.218Z,98754.00
2023-04-12T06:02:02.951Z,98707.59
2023-04-12T06:02:46.551Z,98735.69
2023-04-12T06:03:30.888Z,98744.44
2023-04-12T06:04:18.562Z,98741.22
2023-04-12T06:05:02.977Z,98751.59
2023-04-12T06:05:45.361Z,98738.97
2023-04-12T06:06:30.217Z,98730.63
2023-04-12T06:07:12.914Z,98736.34
2023-04-12T06:07:55.285Z,98736.13
2023-04-12T06:08:38.556Z,98720.47
2023-04-12T06:09:22.041Z,98722.69
2023-04-12T06:10:04.079Z,98721.47
2023-04-12T06:10:45.861Z,98717.81
2023-04-12T06:11:27.911Z,98724.34
2023-04-12T06:12:10.035Z,98713.78
2023-04-12T06:12:51.825Z,98702.56
2023-04-12T06:13:34.214Z,98719.47
2023-04-12T06:14:16.487Z,98718.84
2023-04-12T06:15:00.657Z,98713.75
2023-04-12T06:15:42.453Z,98707.06
2023-04-12T06:16:24.589Z,98703.81
2023-04-12T06:17:06.465Z,98707.47
2023-04-12T06:17:50.829Z,98693.03
2023-04-12T06:18:33.178Z,98681.44
2023-04-12T06:19:14.909Z,98680.00
2023-04-12T06:19:56.520Z,98682.66
2023-04-12T06:20:40.249Z,98678.38
2023-04-12T06:21:22.615Z,98694.22
2023-04-12T06:22:04.365Z,98685.06
2023-04-12T06:22:47.165Z,98686.91
2023-04-12T06:23:31.540Z,98671.63
2023-04-12T06:24:13.465Z,98669.97
2023-04-12T06:24:55.074Z,98679.94
2023-04-12T06:25:38.917Z,98668.34
2023-04-12T06:26:20.828Z,98658.78
2023-04-12T06:27:02.665Z,98667.53
2023-04-12T06:27:46.669Z,98638.41
2023-04-12T06:28:30.604Z,98648.16
2023-04-12T06:29:12.494Z,98666.28
2023-04-12T06:29:54.213Z,98662.81
2023-04-12T06:30:37.864Z,98663.22
2023-04-12T06:31:19.634Z,98648.19
2023-04-12T06:32:01.735Z,98632.91
2023-04-12T06:32:43.609Z,98659.75
2023-04-12T06:33:26.137Z,98661.00
2023-04-12T06:34:08.136Z,98659.00
2023-04-12T06:34:53.086Z,98661.00
2023-04-12T06:35:34.808Z,98649.84
2023-04-12T06:36:17.341Z,98658.41
2023-04-12T06:36:59.837Z,98658.00
2023-04-12T06:37:41.539Z,98662.91
2023-04-12T06:38:23.154Z,98654.75
2023-04-12T06:39:04.939Z,98626.09
2023-04-12T06:39:46.638Z,98663.28
2023-04-12T06:40:28.432Z,98641.34
2023-04-12T06:41:10.229Z,98658.00
2023-04-12T06:41:51.871Z,98644.59
2023-04-12T06:42:36.850Z,98656.78
2023-04-12T06:43:22.749Z,98657.22
2023-04-12T06:44:04.440Z,98649.69
2023-04-12T06:44:46.308Z,98643.97
2023-04-12T06:45:28.168Z,98634.44
2023-04-12T06:46:09.917Z,98645.00
2023-04-12T06:46:51.591Z,98643.75
2023-04-12T06:47:33.474Z,98637.66
2023-04-12T06:48:15.687Z,98640.88
2023-04-12T06:48:57.610Z,98639.25
2023-04-12T06:49:39.491Z,98631.13
2023-04-12T06:50:21.153Z,98637.44
2023-04-12T06:51:02.745Z,98629.94
2023-04-12T06:51:44.866Z,98635.59
2023-04-12T06:52:26.996Z,98603.47
2023-04-12T06:53:08.684Z,98638.66
2023-04-12T06:53:50.280Z,98627.44
2023-04-12T06:54:31.961Z,98634.78
2023-04-12T06:55:13.696Z,98628.09
2023-04-12T06:55:55.546Z,98618.91
2023-04-12T06:56:38.168Z,98618.31
2023-04-12T06:57:19.838Z,98615.25
2023-04-12T06:58:01.458Z,98631.34
2023-04-12T06:58:43.110Z,98621.63
2023-04-12T06:59:24.776Z,98625.88
2023-04-12T07:00:07.195Z,98622.44
2023-04-12T07:00:48.821Z,98620.59
2023-04-12T07:01:31.134Z,98615.31
2023-04-12T07:02:12.843Z,98616.34
2023-04-12T07:02:54.959Z,98622.63
2023-04-12T07:03:37.143Z,98618.97
2023-04-12T07:04:18.945Z,98612.44
2023-04-12T07:05:00.602Z,98612.84
2023-04-12T07:05:42.303Z,98609.38
2023-04-12T07:06:25.988Z,98612.44
2023-04-12T07:07:10.049Z,98607.56
2023-04-12T07:07:51.629Z,98610.81
2023-04-12T07:08:37.239Z,98597.41
2023-04-12T07:09:19.468Z,98606.34
2023-04-12T07:10:01.096Z,98599.25
2023-04-12T07:10:42.782Z,98606.34
2023-04-12T07:11:24.481Z,98606.13
2023-04-12T07:12:06.254Z,98602.28
2023-04-12T07:12:47.973Z,98603.88
2023-04-12T07:13:31.086Z,98596.94
2023-04-12T07:14:12.696Z,98581.47
2023-04-12T07:14:54.289Z,98598.53
2023-04-12T07:15:36.222Z,98591.41
2023-04-12T07:16:18.474Z,98547.09
2023-04-12T07:17:00.208Z,98593.22
2023-04-12T07:17:42.218Z,98587.50
2023-04-12T07:18:24.042Z,98599.72
2023-04-12T07:19:05.687Z,98588.94
2023-04-12T07:19:48.915Z,98590.38
2023-04-12T07:20:30.630Z,98584.25
2023-04-12T07:21:17.391Z,98586.28
2023-04-12T07:21:59.244Z,98583.06
2023-04-12T07:22:40.863Z,98595.25
2023-04-12T07:23:23.646Z,98589.97
2023-04-12T07:24:05.641Z,98576.16
2023-04-12T07:24:50.980Z,98567.81
2023-04-12T07:25:32.556Z,98583.66
2023-04-12T07:26:14.149Z,98578.34
2023-04-12T07:26:55.844Z,98565.94
2023-04-12T07:27:37.470Z,98553.34
2023-04-12T07:28:20.503Z,98572.25
2023-04-12T07:29:02.253Z,98561.44
2023-04-12T07:29:43.951Z,98565.94
2023-04-12T07:30:26.228Z,98576.69
2023-04-12T07:31:08.043Z,98577.28
2023-04-12T07:31:49.685Z,98572.59
2023-04-12T07:32:34.143Z,98564.88
2023-04-12T07:33:19.660Z,98565.06
2023-04-12T07:34:01.907Z,98560.22
2023-04-12T07:34:43.794Z,98565.06
2023-04-12T07:35:28.590Z,98567.16
2023-04-12T07:36:11.559Z,98567.56
2023-04-12T07:36:53.292Z,98566.75
2023-04-12T07:37:35.935Z,98555.78
2023-04-12T07:38:17.668Z,98560.63
2023-04-12T07:38:59.496Z,98559.97
2023-04-12T07:39:41.647Z,98537.22
2023-04-12T07:40:24.165Z,98547.16
2023-04-12T07:41:06.003Z,98553.25
2023-04-12T07:41:50.875Z,98548.97
2023-04-12T07:42:32.689Z,98552.78
2023-04-12T07:43:16.414Z,98551.97
2023-04-12T07:43:58.046Z,98537.34
2023-04-12T07:44:39.664Z,98544.66
2023-04-12T07:45:24.550Z,98532.84
2023-04-12T07:46:08.643Z,98523.06
2023-04-12T07:46:50.592Z,98523.47
2023-04-12T07:47:32.932Z,98520.00
2023-04-12T07:48:14.649Z,98514.72
2023-04-12T07:48:56.471Z,98524.66
2023-04-12T07:49:38.280Z,98520.97
2023-04-12T07:50:19.887Z,98520.63
2023-04-12T07:51:01.559Z,98523.47
2023-04-12T07:51:43.306Z,98520.00
2023-04-12T07:52:25.286Z,98511.25
2023-04-12T07:53:22.992Z,98520.38
2023-04-12T07:54:04.809Z,98509.78
2023-04-12T07:54:46.468Z,98509.97
2023-04-12T07:55:28.129Z,98511.19
2023-04-12T07:56:09.826Z,98515.22
2023-04-12T07:57:05.391Z,98510.97
2023-04-12T07:57:46.988Z,98502.56
2023-04-12T07:58:28.591Z,98497.25
2023-04-12T07:59:10.414Z,98489.66
2023-04-12T07:59:52.229Z,98451.88
2023-04-12T08:00:34.367Z,98486.97
2023-04-12T08:01:16.009Z,98494.66
2023-04-12T08:01:57.807Z,98489.56
2023-04-12T08:02:39.560Z,98487.94
2023-04-12T08:03:21.492Z,98486.91
2023-04-12T08:04:03.575Z,98487.72
2023-04-12T08:04:48.134Z,98492.00
2023-04-12T08:05:29.803Z,98476.50
2023-04-12T08:06:11.820Z,98479.06
2023-04-12T08:06:55.531Z,98483.91
2023-04-12T08:07:37.198Z,98476.09
2023-04-12T08:08:22.664Z,98484.44
2023-04-12T08:09:04.343Z,98476.47
2023-04-12T08:09:47.014Z,98471.91
2023-04-12T08:10:29.628Z,98462.41
2023-04-12T08:11:11.613Z,98479.84
2023-04-12T08:11:53.303Z,98464.03
2023-04-12T08:12:36.472Z,98477.88
2023-04-12T08:13:18.726Z,98466.47
2023-04-12T08:14:00.727Z,98466.25
2023-04-12T08:14:42.395Z,98467.63
2023-04-12T08:15:24.515Z,98471.97
2023-04-12T08:16:08.304Z,98464.31
2023-04-12T08:16:50.112Z,98420.13
2023-04-12T08:17:31.882Z,98476.16
2023-04-12T08:18:13.953Z,98467.00
2023-04-12T08:18:56.272Z,98474.81
2023-04-12T08:19:37.867Z,98475.03
2023-04-12T08:20:19.520Z,98446.81
2023-04-12T08:21:01.283Z,98473.13
2023-04-12T08:21:43.014Z,98471.88
2023-04-12T08:22:24.666Z,98481.88
2023-04-12T08:23:07.452Z,98455.13
2023-04-12T08:23:50.927Z,98472.16
2023-04-12T08:24:32.604Z,98483.13
2023-04-12T08:25:14.212Z,98478.03
2023-04-12T08:26:03.627Z,98482.78
2023-04-12T08:26:46.097Z,98481.72
2023-04-12T08:27:29.609Z,98472.75
2023-04-12T08:28:11.263Z,98466.06
2023-04-12T08:28:52.948Z,98476.75
2023-04-12T08:29:34.859Z,98477.31
2023-04-12T08:30:17.599Z,98477.19
2023-04-12T08:30:59.582Z,98476.16
2023-04-12T08:31:41.885Z,98470.88
2023-04-12T08:32:23.598Z,98466.97
2023-04-12T08:33:05.580Z,98467.50
2023-04-12T08:33:47.261Z,98464.19
2023-04-12T08:34:28.871Z,98463.09
2023-04-12T08:35:11.061Z,98467.28
2023-04-12T08:35:52.974Z,98451.38
2023-04-12T08:36:34.697Z,98462.34
2023-04-12T08:37:16.947Z,98463.97